Time;durP1;ratioP1;P1;durP2;ratioP2;P2;SDS_P1;SDS_P2;PMS_P1;PMS_P2;Temp;Humidity;BMP_temperature;BMP_pressure;BME280_temperature;BME280_humidity;BME280_pressure;Samples;Min_cycle;Max_cycle;Signal;HPM_P1;HPM_P2
2021/01/25 00:01:23;;;;;;;;;3.00;3.00;;;;;3.08;63.91;97752.78;5009522;28;9182;-58
2021/01/25 00:03:50;;;;;;;;;4.00;1.50;;;;;3.16;63.70;97743.47;5005889;28;8871;-57
2021/01/25 00:06:17;;;;;;;;;2.00;2.00;;;;;3.08;64.73;97746.59;5007817;28;9036;-58
2021/01/25 00:08:44;;;;;;;;;3.50;1.25;;;;;2.88;65.35;97749.66;5009939;28;9557;-54
2021/01/25 00:11:11;;;;;;;;;2.75;1.75;;;;;3.04;65.13;97748.59;5005934;28;8842;-56
2021/01/25 00:13:38;;;;;;;;;2.50;1.75;;;;;2.96;65.59;97747.38;5009871;28;9619;-55
2021/01/25 00:16:06;;;;;;;;;0.75;0.75;;;;;2.91;66.38;97745.00;5010185;28;8839;-56
2021/01/25 00:18:33;;;;;;;;;4.00;1.00;;;;;2.96;66.61;97753.53;5010708;28;8838;-54
2021/01/25 00:21:00;;;;;;;;;7.25;3.00;;;;;2.78;68.62;97730.81;5012272;28;8843;-59
2021/01/25 00:23:26;;;;;;;;;1.75;1.75;;;;;2.96;67.67;97742.94;5013508;28;8850;-57
2021/01/25 00:25:53;;;;;;;;;1.00;1.00;;;;;2.90;67.82;97742.44;5028807;28;8831;-56
2021/01/25 00:28:20;;;;;;;;;0.00;0.00;;;;;2.86;69.07;97742.63;5012999;28;8933;-56
2021/01/25 00:30:47;;;;;;;;;1.50;1.00;;;;;2.71;69.88;97748.03;5010032;28;8859;-55
2021/01/25 00:33:14;;;;;;;;;1.00;0.00;;;;;2.74;70.10;97746.06;5013112;28;8835;-56
2021/01/25 00:35:41;;;;;;;;;0.00;0.00;;;;;2.89;71.55;97751.34;5014195;28;9517;-50
2021/01/25 00:38:10;;;;;;;;;1.67;0.00;;;;;2.64;72.05;97747.56;5013176;28;8885;-56
2021/01/25 00:40:38;;;;;;;;;1.25;0.00;;;;;2.67;74.69;97741.22;5013619;28;9386;-57
2021/01/25 00:43:05;;;;;;;;;1.00;0.00;;;;;2.54;73.97;97747.25;5013939;28;8835;-56
2021/01/25 00:45:32;;;;;;;;;0.00;0.00;;;;;2.53;75.68;97753.50;5013259;28;8835;-56
2021/01/25 00:47:59;;;;;;;;;0.00;0.00;;;;;2.39;76.53;97743.72;5013289;28;8953;-59
2021/01/25 00:50:27;;;;;;;;;0.00;0.00;;;;;2.26;76.88;97753.34;5013809;28;8847;-54
2021/01/25 00:52:53;;;;;;;;;0.00;0.00;;;;;2.22;77.64;97751.00;5014442;28;8852;-58
2021/01/25 00:55:20;;;;;;;;;0.00;0.00;;;;;1.98;78.80;97754.97;5013138;28;8921;-56
2021/01/25 00:57:47;;;;;;;;;0.00;0.00;;;;;2.01;79.37;97753.09;5013233;28;8851;-57
2021/01/25 01:00:15;;;;;;;;;0.00;0.00;;;;;1.97;79.89;97758.56;5013395;28;8946;-55
2021/01/25 01:02:42;;;;;;;;;0.00;0.00;;;;;1.91;80.97;97764.19;5012852;28;8858;-55
2021/01/25 01:05:11;;;;;;;;;0.00;0.00;;;;;1.84;81.61;97765.47;5028536;28;8855;-55
2021/01/25 01:07:38;;;;;;;;;1.50;0.00;;;;;1.54;83.75;97750.41;5013345;28;8847;-56
2021/01/25 01:10:06;;;;;;;;;1.00;1.00;;;;;1.81;84.33;97763.00;5012924;28;8847;-56
2021/01/25 01:12:34;;;;;;;;;0.00;0.00;;;;;1.48;85.08;97765.78;5012583;28;8843;-57
2021/01/25 01:15:02;;;;;;;;;0.50;0.50;;;;;1.49;85.62;97760.41;5013200;28;8842;-54
2021/01/25 01:17:29;;;;;;;;;1.50;0.75;;;;;1.37;86.49;97769.03;5012503;28;8843;-55
2021/01/25 01:19:56;;;;;;;;;6.25;1.00;;;;;1.44;87.58;97770.38;5012512;28;8981;-57
2021/01/25 01:22:23;;;;;;;;;2.50;1.00;;;;;1.21;88.37;97770.78;5012153;28;8855;-55
2021/01/25 01:24:50;;;;;;;;;3.00;1.00;;;;;1.19;88.64;97772.69;5012692;28;8879;-57
2021/01/25 01:27:17;;;;;;;;;4.00;1.00;;;;;1.07;89.82;97774.19;5012589;28;8847;-56
2021/01/25 01:29:44;;;;;;;;;0.75;0.00;;;;;1.06;90.46;97775.13;5012429;28;8854;-56
2021/01/25 01:32:11;;;;;;;;;1.00;1.00;;;;;0.68;91.53;97769.25;5011217;28;8890;-58
2021/01/25 01:34:38;;;;;;;;;0.00;0.00;;;;;1.00;91.84;97771.03;5012199;28;8846;-55
2021/01/25 01:37:05;;;;;;;;;1.00;0.00;;;;;0.84;92.13;97767.50;5012117;28;8899;-55
2021/01/25 01:39:32;;;;;;;;;0.75;0.75;;;;;0.73;92.40;97761.94;5012934;28;8831;-58
2021/01/25 01:41:58;;;;;;;;;1.00;1.00;;;;;0.68;92.82;97756.88;5012596;28;8890;-58
2021/01/25 01:44:25;;;;;;;;;2.00;1.00;;;;;0.86;93.44;97762.97;5012519;28;8889;-59
2021/01/25 01:46:54;;;;;;;;;6.00;3.00;;;;;0.76;93.02;97754.69;5011493;28;8862;-59
2021/01/25 01:49:22;;;;;;;;;3.25;1.00;;;;;0.64;92.91;97753.56;5027481;28;8831;-59
2021/01/25 01:51:49;;;;;;;;;1.00;1.00;;;;;0.65;93.09;97755.25;5027569;28;8845;-58
2021/01/25 01:54:18;;;;;;;;;3.50;2.50;;;;;0.63;92.99;97753.63;5028860;28;8842;-59
2021/01/25 01:56:45;;;;;;;;;4.00;3.00;;;;;0.50;93.15;97758.72;5012183;28;8940;-59
2021/01/25 01:59:12;;;;;;;;;5.25;3.25;;;;;0.53;92.80;97755.91;5012844;28;9544;-60
2021/01/25 02:01:39;;;;;;;;;6.00;5.50;;;;;0.50;93.50;97758.72;5012318;28;8894;-59
2021/01/25 02:04:08;;;;;;;;;9.75;6.50;;;;;0.53;94.21;97761.19;5012214;28;8966;-60
2021/01/25 02:06:35;;;;;;;;;6.00;6.00;;;;;0.55;93.60;97764.59;5011335;28;8826;-60
2021/01/25 02:09:05;;;;;;;;;7.75;6.00;;;;;0.57;93.78;97760.09;5041104;28;8829;-60
2021/01/25 02:11:33;;;;;;;;;6.00;5.00;;;;;0.43;93.69;97759.97;5027381;28;9618;-60
2021/01/25 02:14:02;;;;;;;;;6.75;6.00;;;;;0.53;93.71;97763.84;5010443;28;8893;-58
2021/01/25 02:16:41;;;;;;;;;9.00;4.00;;;;;0.46;93.67;97764.22;5011106;28;8945;-59
2021/01/25 02:19:24;;;;;;;;;7.50;4.00;;;;;0.52;93.60;97764.75;5026770;28;8851;-59
2021/01/25 02:22:18;;;;;;;;;9.00;9.00;;;;;0.30;93.70;97759.75;5027517;28;8897;-58
2021/01/25 02:25:09;;;;;;;;;9.25;7.00;;;;;0.38;94.39;97762.00;5020682;28;8864;-59
2021/01/25 02:27:42;;;;;;;;;11.00;6.00;;;;;0.71;94.60;97763.78;5044002;28;8839;-60
2021/01/25 02:30:13;;;;;;;;;12.00;7.00;;;;;0.56;94.47;97754.91;5027296;28;8831;-60
2021/01/25 02:32:42;;;;;;;;;6.75;6.25;;;;;0.39;94.24;97753.97;5011055;28;8839;-58
2021/01/25 02:35:14;;;;;;;;;12.00;7.00;;;;;0.41;94.28;97751.25;5011869;28;9553;-59
2021/01/25 02:37:44;;;;;;;;;4.00;4.00;;;;;0.20;94.69;97754.06;5027679;28;8944;-60
2021/01/25 02:40:14;;;;;;;;;11.00;7.00;;;;;0.69;94.45;97760.41;5011823;28;8879;-59
2021/01/25 02:42:43;;;;;;;;;10.00;6.75;;;;;0.40;94.44;97749.56;5009366;28;8923;-60
2021/01/25 02:45:11;;;;;;;;;7.00;6.75;;;;;0.41;94.39;97740.69;5027230;28;8882;-59
2021/01/25 02:47:39;;;;;;;;;11.25;6.75;;;;;0.35;94.54;97756.88;5028289;28;9662;-60
2021/01/25 02:50:08;;;;;;;;;12.00;9.25;;;;;0.39;94.35;97767.16;5011561;28;8866;-59
2021/01/25 02:52:35;;;;;;;;;6.00;4.00;;;;;0.49;94.51;97762.28;5010944;28;8865;-59
2021/01/25 02:55:03;;;;;;;;;12.25;10.00;;;;;0.41;93.53;97765.31;5011968;28;8851;-59
2021/01/25 02:57:34;;;;;;;;;11.50;9.75;;;;;0.36;94.02;97766.47;5010745;28;8969;-58
2021/01/25 03:00:03;;;;;;;;;14.00;9.00;;;;;0.51;93.38;97756.94;5026668;28;8865;-59
2021/01/25 03:02:32;;;;;;;;;7.50;7.50;;;;;0.37;94.02;97760.25;4970454;28;1161035;-58
2021/01/25 03:05:04;;;;;;;;;11.75;9.00;;;;;0.26;93.19;97760.81;5012318;28;8838;-60
2021/01/25 03:07:31;;;;;;;;;11.50;9.00;;;;;0.27;93.64;97764.34;5011759;28;8827;-57
2021/01/25 03:10:05;;;;;;;;;10.50;8.00;;;;;0.46;93.38;97770.38;5011680;28;8863;-59
2021/01/25 03:12:33;;;;;;;;;14.50;10.00;;;;;0.41;93.00;97767.09;5021638;28;9757;-58
2021/01/25 03:15:00;;;;;;;;;12.00;9.00;;;;;0.40;92.91;97765.41;5016105;28;8856;-58
2021/01/25 03:17:27;;;;;;;;;14.50;11.00;;;;;0.24;93.17;97764.47;5010708;28;8874;-58
2021/01/25 03:19:54;;;;;;;;;10.50;10.50;;;;;0.42;92.81;97751.19;5011393;28;8842;-58
2021/01/25 03:22:21;;;;;;;;;12.50;10.00;;;;;0.36;93.49;97750.66;5011801;28;9666;-59
2021/01/25 03:24:48;;;;;;;;;13.00;10.00;;;;;0.37;94.11;97733.88;5011753;28;8858;-60
2021/01/25 03:27:15;;;;;;;;;7.50;7.50;;;;;0.24;92.96;97733.66;5011622;28;8885;-59
2021/01/25 03:29:42;;;;;;;;;9.50;7.00;;;;;0.42;92.34;97722.16;5012254;28;8863;-58
2021/01/25 03:32:09;;;;;;;;;12.00;6.75;;;;;0.44;92.42;97727.34;5011157;28;8853;-59
2021/01/25 03:34:36;;;;;;;;;54.50;44.50;;;;;0.52;92.93;97727.78;5008715;28;8851;-60
2021/01/25 03:37:03;;;;;;;;;22.00;20.50;;;;;0.38;92.36;97723.25;5011522;28;8843;-60
2021/01/25 03:39:30;;;;;;;;;20.25;17.75;;;;;0.57;92.37;97725.75;5011316;28;8831;-59
2021/01/25 03:41:57;;;;;;;;;24.75;17.50;;;;;0.54;90.84;97719.81;5011523;28;8870;-59
2021/01/25 03:44:24;;;;;;;;;25.75;21.75;;;;;0.76;90.17;97719.50;5010713;28;8846;-59
2021/01/25 03:46:51;;;;;;;;;22.50;15.75;;;;;0.61;90.20;97723.84;5010305;28;8831;-59
2021/01/25 03:49:18;;;;;;;;;13.25;10.00;;;;;0.54;89.62;97718.00;5011501;28;8867;-59
2021/01/25 03:51:45;;;;;;;;;11.25;9.50;;;;;0.74;88.25;97713.44;5024873;28;8868;-58
2021/01/25 03:54:13;;;;;;;;;23.00;15.50;;;;;0.62;88.11;97713.16;5013065;28;8842;-59
2021/01/25 03:56:41;;;;;;;;;10.75;9.50;;;;;0.64;87.39;97724.50;5031003;28;8811;-61
2021/01/25 03:59:08;;;;;;;;;16.50;11.00;;;;;0.67;86.80;97733.22;5014557;28;8843;-59
2021/01/25 04:01:35;;;;;;;;;19.00;12.50;;;;;0.58;87.13;97737.16;5016365;28;8855;-59
2021/01/25 04:04:03;;;;;;;;;18.50;12.00;;;;;0.74;86.49;97735.44;5025404;28;8829;-60
2021/01/25 04:06:30;;;;;;;;;14.25;12.25;;;;;0.73;84.57;97735.50;5035391;28;8941;-60
2021/01/25 04:08:57;;;;;;;;;14.75;10.75;;;;;0.78;85.20;97729.06;5013933;28;8872;-59
2021/01/25 04:11:24;;;;;;;;;13.00;9.25;;;;;0.69;84.23;97728.72;5019556;28;8857;-58
2021/01/25 04:13:51;;;;;;;;;7.25;6.75;;;;;0.72;84.27;97729.38;4978787;28;8887;-58
2021/01/25 04:16:18;;;;;;;;;5.75;4.50;;;;;0.78;83.40;97729.06;5014100;28;8835;-59
2021/01/25 04:18:45;;;;;;;;;6.50;6.50;;;;;0.86;84.70;97736.56;5015521;28;8839;-59
2021/01/25 04:21:12;;;;;;;;;6.25;6.25;;;;;0.82;84.43;97738.53;5032125;28;8860;-59
2021/01/25 04:23:39;;;;;;;;;12.25;7.00;;;;;0.68;83.69;97732.25;5034537;28;8872;-58
2021/01/25 04:26:07;;;;;;;;;4.00;4.00;;;;;0.83;83.88;97736.75;5034875;28;9549;-59
2021/01/25 04:28:34;;;;;;;;;12.25;6.50;;;;;0.55;83.66;97726.78;5035114;28;8868;-60
2021/01/25 04:31:02;;;;;;;;;6.00;6.00;;;;;1.06;84.27;97733.72;5024453;28;8837;-59
2021/01/25 04:33:29;;;;;;;;;7.00;5.00;;;;;0.69;82.69;97728.72;5020753;28;8868;-60
2021/01/25 04:35:56;;;;;;;;;12.25;6.00;;;;;0.96;83.60;97732.50;4995353;28;8869;-60
2021/01/25 04:38:22;;;;;;;;;4.00;4.00;;;;;1.07;80.99;97727.47;5027600;28;8835;-60
2021/01/25 04:40:49;;;;;;;;;7.00;6.25;;;;;0.86;82.65;97741.84;5008945;28;8935;-59
2021/01/25 04:43:19;;;;;;;;;11.00;6.00;;;;;0.79;82.37;97735.19;5018960;28;8846;-59
2021/01/25 04:45:48;;;;;;;;;8.50;4.50;;;;;0.91;81.67;97739.81;5038911;28;8863;-60
2021/01/25 04:48:16;;;;;;;;;5.00;5.00;;;;;0.55;82.27;97734.69;4997773;28;8957;-60
2021/01/25 04:50:43;;;;;;;;;8.50;6.25;;;;;0.76;83.32;97740.63;5029978;28;8877;-60
2021/01/25 04:53:11;;;;;;;;;9.75;9.00;;;;;0.78;81.98;97744.06;5014798;28;8919;-60
2021/01/25 04:55:39;;;;;;;;;12.75;9.00;;;;;0.77;82.61;97745.84;5013760;28;8855;-59
2021/01/25 04:58:06;;;;;;;;;17.00;10.00;;;;;0.60;83.12;97741.44;5029492;28;8867;-59
2021/01/25 05:00:33;;;;;;;;;11.25;8.50;;;;;0.78;83.33;97746.69;5014473;28;8835;-60
2021/01/25 05:03:00;;;;;;;;;15.50;9.50;;;;;0.68;83.35;97742.81;5015157;28;8835;-60
2021/01/25 05:05:28;;;;;;;;;9.00;6.00;;;;;0.79;82.75;97745.75;5014324;28;8863;-60
2021/01/25 05:07:55;;;;;;;;;11.00;8.00;;;;;0.80;82.50;97744.81;5014100;28;8863;-59
2021/01/25 05:10:23;;;;;;;;;9.00;6.75;;;;;0.71;82.63;97743.53;5014813;28;8847;-59
2021/01/25 05:12:52;;;;;;;;;9.50;9.50;;;;;0.71;83.47;97754.09;5014560;28;8851;-60
2021/01/25 05:15:33;;;;;;;;;10.00;9.00;;;;;0.74;83.31;97750.41;5014365;28;8831;-59
2021/01/25 05:18:11;;;;;;;;;9.00;7.00;;;;;1.02;82.69;97757.72;5013780;28;8866;-59
2021/01/25 05:20:38;;;;;;;;;8.50;5.50;;;;;0.89;83.08;97757.53;5014631;28;8877;-60
2021/01/25 05:23:15;;;;;;;;;8.50;7.00;;;;;0.77;83.13;97759.06;5014451;28;8866;-59
2021/01/25 05:25:42;;;;;;;;;13.00;10.50;;;;;1.01;84.33;97756.03;5013612;28;8851;-59
2021/01/25 05:28:19;;;;;;;;;8.25;6.00;;;;;1.06;82.86;97760.13;5030029;28;8875;-60
2021/01/25 05:30:47;;;;;;;;;7.00;6.75;;;;;0.95;83.80;97767.78;4997175;28;8917;-59
2021/01/25 05:33:27;;;;;;;;;8.00;8.00;;;;;0.87;82.18;97760.28;5013312;28;8862;-59
2021/01/25 05:35:55;;;;;;;;;9.50;9.50;;;;;0.78;82.39;97763.38;5014180;28;8889;-59
2021/01/25 05:38:22;;;;;;;;;9.25;9.00;;;;;0.81;81.66;97778.22;5029890;28;9599;-60
2021/01/25 05:40:56;;;;;;;;;11.00;8.50;;;;;0.94;81.65;97776.63;5013387;28;8874;-59
2021/01/25 05:43:32;;;;;;;;;17.00;9.00;;;;;0.76;81.95;97777.59;5014518;28;8842;-58
2021/01/25 05:46:13;;;;;;;;;9.00;6.75;;;;;0.73;82.13;97780.41;5014234;28;8871;-59
2021/01/25 05:48:43;;;;;;;;;7.25;5.75;;;;;1.01;81.64;97783.31;5013835;28;8881;-59
2021/01/25 05:51:16;;;;;;;;;17.50;10.00;;;;;0.79;82.99;97780.09;5013320;28;8952;-59
2021/01/25 05:53:48;;;;;;;;;14.25;9.00;;;;;0.77;82.65;97782.81;5013034;28;8842;-59
2021/01/25 05:56:17;;;;;;;;;15.50;10.50;;;;;0.89;82.30;97789.22;4997003;28;8854;-59
2021/01/25 05:58:43;;;;;;;;;12.25;8.50;;;;;0.96;81.61;97792.41;5013658;28;8847;-59
2021/01/25 06:01:10;;;;;;;;;13.00;9.75;;;;;0.90;81.30;97796.25;5029043;28;9588;-59
2021/01/25 06:03:40;;;;;;;;;13.00;9.25;;;;;0.78;81.42;97804.81;5013011;28;8944;-59
2021/01/25 06:06:17;;;;;;;;;12.00;8.00;;;;;0.90;81.80;97809.44;5011481;28;8839;-59
2021/01/25 06:08:53;;;;;;;;;12.50;12.00;;;;;1.07;83.53;97816.47;5010669;28;8858;-58
2021/01/25 06:11:28;;;;;;;;;12.25;12.00;;;;;1.13;82.58;97813.50;5013646;28;8953;-59
2021/01/25 06:14:01;;;;;;;;;27.00;16.00;;;;;0.93;82.37;97813.72;5028713;28;8873;-58
2021/01/25 06:16:29;;;;;;;;;23.00;18.75;;;;;1.10;81.98;97811.00;5028020;28;8851;-60
2021/01/25 06:19:02;;;;;;;;;33.00;25.00;;;;;1.15;83.43;97816.06;5012605;28;8863;-59
2021/01/25 06:21:41;;;;;;;;;29.00;23.75;;;;;0.93;83.33;97826.94;5012797;28;8879;-59
2021/01/25 06:24:11;;;;;;;;;34.25;21.75;;;;;0.90;83.80;97830.59;5012892;28;8865;-59
2021/01/25 06:26:40;;;;;;;;;25.00;21.00;;;;;0.95;84.06;97836.47;5013111;28;8843;-59
2021/01/25 06:29:08;;;;;;;;;23.50;13.00;;;;;1.00;82.59;97842.38;5013083;28;8846;-59
2021/01/25 06:31:38;;;;;;;;;19.75;12.00;;;;;0.78;82.98;97844.41;5013199;28;8846;-59
2021/01/25 06:34:15;;;;;;;;;20.00;17.00;;;;;0.78;83.56;97849.69;5012617;28;8914;-59
2021/01/25 06:36:43;;;;;;;;;14.00;12.00;;;;;0.96;83.53;97853.19;5011964;28;8858;-59
2021/01/25 06:39:11;;;;;;;;;22.50;15.25;;;;;0.83;83.86;97860.88;5012974;28;8885;-59
2021/01/25 06:41:42;;;;;;;;;21.25;17.00;;;;;0.76;84.46;97862.97;5012572;28;8870;-60
2021/01/25 06:44:11;;;;;;;;;20.75;14.00;;;;;0.69;84.95;97866.03;5028552;28;8838;-59
2021/01/25 06:46:40;;;;;;;;;17.50;17.50;;;;;0.63;86.17;97868.06;5028258;28;8843;-59
2021/01/25 06:49:10;;;;;;;;;21.50;19.00;;;;;0.92;85.45;97868.31;5012068;28;8903;-59
2021/01/25 06:51:45;;;;;;;;;20.50;16.00;;;;;0.70;85.51;97873.03;5028283;28;8916;-59
2021/01/25 06:54:13;;;;;;;;;23.50;21.50;;;;;0.82;85.21;97885.59;5027883;28;8862;-59
2021/01/25 06:56:45;;;;;;;;;24.50;22.00;;;;;0.70;85.67;97894.16;5011657;28;8854;-59
2021/01/25 06:59:12;;;;;;;;;22.50;20.75;;;;;0.89;84.81;97894.91;5012069;28;8882;-59
2021/01/25 07:01:41;;;;;;;;;26.00;21.25;;;;;0.84;85.51;97894.28;5012546;28;8870;-60
2021/01/25 07:04:14;;;;;;;;;22.25;17.50;;;;;0.85;85.90;97901.28;5012723;28;8925;-59
2021/01/25 07:06:54;;;;;;;;;29.75;24.75;;;;;1.08;84.69;97911.53;5012292;28;8859;-60
2021/01/25 07:09:34;;;;;;;;;28.50;17.00;;;;;1.19;84.85;97912.78;5012968;28;8929;-60
2021/01/25 07:12:03;;;;;;;;;28.25;19.00;;;;;1.15;84.96;97906.78;5012647;28;8886;-60
2021/01/25 07:14:33;;;;;;;;;20.50;16.00;;;;;1.04;84.35;97917.91;5012617;28;8834;-60
2021/01/25 07:17:01;;;;;;;;;27.25;21.00;;;;;1.08;84.32;97919.47;5012560;28;8827;-60
2021/01/25 07:19:29;;;;;;;;;40.25;27.00;;;;;1.03;85.69;97921.50;5012388;28;8865;-61
2021/01/25 07:21:56;;;;;;;;;18.50;14.50;;;;;1.10;83.87;97929.94;5012452;28;8882;-59
2021/01/25 07:24:26;;;;;;;;;25.00;19.25;;;;;1.15;84.51;97933.19;5012708;28;8873;-59
2021/01/25 07:26:59;;;;;;;;;18.25;15.00;;;;;1.25;83.67;97926.50;5011765;28;8881;-60
2021/01/25 07:29:27;;;;;;;;;29.75;24.00;;;;;1.30;83.66;97934.22;5027446;28;8867;-59
2021/01/25 07:31:56;;;;;;;;;27.00;21.25;;;;;1.19;84.05;97928.63;5012386;28;8862;-60
2021/01/25 07:34:26;;;;;;;;;23.00;20.00;;;;;1.09;84.06;97934.38;5012465;28;8889;-59
2021/01/25 07:36:53;;;;;;;;;25.00;19.00;;;;;1.32;83.77;97945.56;5011117;28;8847;-61
2021/01/25 07:39:20;;;;;;;;;25.50;17.50;;;;;1.36;83.45;97947.09;5027663;28;8877;-61
2021/01/25 07:41:49;;;;;;;;;24.75;21.25;;;;;1.31;82.70;97951.75;5011885;28;8871;-61
2021/01/25 07:44:17;;;;;;;;;24.00;17.00;;;;;1.28;83.89;97959.84;5011953;28;8870;-61
2021/01/25 07:46:47;;;;;;;;;29.50;24.75;;;;;1.22;83.75;97950.47;5011907;28;8847;-61
2021/01/25 07:49:14;;;;;;;;;32.00;25.75;;;;;1.21;84.32;97956.69;5011927;28;8949;-61
2021/01/25 07:51:43;;;;;;;;;27.00;21.75;;;;;1.36;83.79;97964.75;5011724;28;8867;-61
2021/01/25 07:54:16;;;;;;;;;24.25;21.00;;;;;1.43;82.95;97964.34;5012102;28;8839;-61
2021/01/25 07:56:43;;;;;;;;;29.00;20.50;;;;;1.57;83.38;97968.91;5011944;28;8851;-61
2021/01/25 07:59:16;;;;;;;;;32.00;20.50;;;;;1.76;82.40;97971.44;5012221;28;8863;-61
2021/01/25 08:01:56;;;;;;;;;28.00;22.00;;;;;1.49;82.93;97973.75;5011087;28;8883;-61
2021/01/25 08:04:31;;;;;;;;;25.75;18.50;;;;;1.63;82.68;97973.88;5012159;28;8907;-62
2021/01/25 08:07:00;;;;;;;;;33.00;24.00;;;;;1.65;83.38;97979.09;5026836;28;8847;-61
2021/01/25 08:09:28;;;;;;;;;37.00;26.00;;;;;1.64;82.97;97977.41;5011818;28;8839;-62
2021/01/25 08:11:58;;;;;;;;;22.50;19.75;;;;;1.81;82.93;97977.31;5011868;28;8969;-61
2021/01/25 08:14:51;;;;;;;;;22.00;18.25;;;;;1.87;81.27;97974.38;5025834;28;8956;-61
2021/01/25 08:17:30;;;;;;;;;28.00;22.75;;;;;1.72;80.80;98001.66;5025145;28;8839;-62
2021/01/25 08:20:09;;;;;;;;;31.00;21.75;;;;;1.89;81.48;97993.66;5011429;28;8834;-61
2021/01/25 08:22:42;;;;;;;;;21.50;16.25;;;;;1.92;80.76;97998.78;5010609;28;9670;-61
2021/01/25 08:25:23;;;;;;;;;30.25;18.00;;;;;2.00;80.82;97997.50;5011362;28;8855;-61
2021/01/25 08:28:02;;;;;;;;;29.25;24.50;;;;;1.98;81.17;98001.09;5026735;28;8855;-61
2021/01/25 08:30:37;;;;;;;;;30.00;18.50;;;;;1.97;80.16;98007.34;5011344;28;8867;-61
2021/01/25 08:33:08;;;;;;;;;24.25;20.00;;;;;2.07;80.32;97998.91;5027113;28;8847;-61
2021/01/25 08:35:53;;;;;;;;;31.75;27.75;;;;;2.10;80.19;98001.38;5027306;28;8854;-61
2021/01/25 08:38:40;;;;;;;;;33.75;25.00;;;;;2.11;80.93;98003.09;5011119;28;8877;-61
2021/01/25 08:41:34;;;;;;;;;22.00;20.50;;;;;2.13;80.26;98011.78;5013585;28;8858;-61
2021/01/25 08:44:15;;;;;;;;;26.75;26.00;;;;;2.11;81.20;98014.53;5011991;28;8897;-61
2021/01/25 08:46:43;;;;;;;;;28.50;23.25;;;;;2.37;79.91;98026.34;5014960;28;8878;-61
2021/01/25 08:49:35;;;;;;;;;24.50;19.75;;;;;2.35;79.13;98022.94;5014301;28;9639;-61
2021/01/25 08:52:27;;;;;;;;;32.50;23.25;;;;;2.46;79.41;98029.44;5015266;28;8843;-62
2021/01/25 08:55:25;;;;;;;;;32.50;29.50;;;;;2.46;80.03;98032.06;5013793;28;8850;-62
2021/01/25 08:57:55;;;;;;;;;30.25;20.75;;;;;2.60;79.07;98037.44;5013644;28;8922;-61
2021/01/25 09:00:33;;;;;;;;;34.75;24.00;;;;;2.58;78.65;98040.19;5013605;28;9564;-62
2021/01/25 09:03:04;;;;;;;;;33.25;24.25;;;;;2.62;80.00;98038.22;5012634;28;8866;-61
2021/01/25 09:05:32;;;;;;;;;28.00;22.50;;;;;2.75;78.85;98046.34;5013585;28;8924;-61
2021/01/25 09:07:59;;;;;;;;;35.50;23.75;;;;;2.72;78.66;98047.38;5029104;28;8831;-61
2021/01/25 09:10:27;;;;;;;;;36.50;28.50;;;;;2.85;77.75;98050.19;5013530;28;8846;-61
2021/01/25 09:12:54;;;;;;;;;29.50;22.25;;;;;2.94;78.29;98047.00;5014036;28;8851;-62
2021/01/25 09:15:22;;;;;;;;;26.00;22.25;;;;;2.92;77.60;98055.97;5014239;28;8866;-62
2021/01/25 09:17:49;;;;;;;;;30.25;24.50;;;;;2.78;77.95;98057.63;5014377;28;8835;-62
2021/01/25 09:20:16;;;;;;;;;26.50;24.25;;;;;3.03;76.70;98051.78;5014608;28;8874;-61
2021/01/25 09:22:43;;;;;;;;;27.50;23.50;;;;;3.16;76.67;98064.31;5014558;28;8854;-61
2021/01/25 09:25:12;;;;;;;;;30.00;25.75;;;;;3.34;76.92;98065.91;5014523;28;8847;-61
2021/01/25 09:27:40;;;;;;;;;24.25;22.75;;;;;3.24;75.65;98068.25;5014393;28;8953;-61
2021/01/25 09:30:14;;;;;;;;;30.50;22.25;;;;;3.32;76.24;98061.63;5029800;28;8865;-61
2021/01/25 09:32:42;;;;;;;;;36.25;28.25;;;;;3.12;76.06;98065.47;5029939;28;9703;-61
2021/01/25 09:35:15;;;;;;;;;26.50;21.75;;;;;2.93;75.74;98066.50;5013965;28;8973;-61
2021/01/25 09:37:43;;;;;;;;;26.25;20.00;;;;;3.19;75.25;98061.53;5014014;28;8921;-61
2021/01/25 09:40:11;;;;;;;;;34.50;26.25;;;;;3.64;77.17;98068.56;5014154;28;9536;-60
2021/01/25 09:42:38;;;;;;;;;36.25;26.50;;;;;3.58;75.06;98060.97;5014436;28;8917;-61
2021/01/25 09:45:16;;;;;;;;;35.00;25.25;;;;;3.53;74.33;98060.41;5014099;28;8881;-60
2021/01/25 09:47:44;;;;;;;;;25.25;15.50;;;;;3.78;73.60;98058.94;5014184;28;8875;-61
2021/01/25 09:50:14;;;;;;;;;31.25;19.75;;;;;3.85;73.69;98052.31;5013485;28;8870;-61
2021/01/25 09:52:46;;;;;;;;;35.00;23.25;;;;;4.06;74.17;98053.66;5013392;28;8847;-61
2021/01/25 09:55:16;;;;;;;;;33.50;27.25;;;;;4.08;74.04;98049.09;5013968;28;8867;-61
2021/01/25 09:57:42;;;;;;;;;24.33;17.67;;;;;4.15;73.04;98047.75;5013072;28;8884;-61
2021/01/25 10:00:12;;;;;;;;;28.00;20.33;;;;;4.31;73.01;98041.50;5029190;28;8835;-61
2021/01/25 10:02:39;;;;;;;;;28.67;24.67;;;;;4.23;72.10;98055.25;5013380;28;8859;-60
2021/01/25 10:05:08;;;;;;;;;25.00;22.67;;;;;4.03;73.32;98045.00;5013632;28;8843;-61
2021/01/25 10:07:35;;;;;;;;;24.00;17.67;;;;;4.14;71.55;98040.75;5013837;28;8869;-60
2021/01/25 10:10:11;;;;;;;;;32.67;19.67;;;;;4.11;71.35;98032.13;5013048;28;8885;-60
2021/01/25 10:12:38;;;;;;;;;20.00;20.00;;;;;3.99;69.73;98036.38;5013716;28;8858;-60
2021/01/25 10:15:12;;;;;;;;;10.33;10.00;;;;;4.15;71.31;98036.28;5013473;28;8875;-60
2021/01/25 10:17:39;;;;;;;;;30.67;21.33;;;;;4.34;70.52;98035.97;5013369;28;8847;-60
2021/01/25 10:20:07;;;;;;;;;33.33;21.67;;;;;4.32;70.83;98043.22;5013118;28;8847;-60
2021/01/25 10:22:34;;;;;;;;;25.33;14.67;;;;;4.34;70.28;98043.97;5012956;28;8895;-60
2021/01/25 10:25:02;;;;;;;;;18.67;17.00;;;;;4.27;69.59;98040.00;5028756;28;8847;-60
2021/01/25 10:27:30;;;;;;;;;22.67;17.00;;;;;4.30;68.91;98042.47;5013282;28;8862;-59
2021/01/25 10:29:57;;;;;;;;;17.00;17.00;;;;;4.51;70.26;98042.91;5013517;28;8969;-60
2021/01/25 10:32:25;;;;;;;;;17.00;17.00;;;;;4.55;68.71;98045.25;5013219;28;8897;-59
2021/01/25 10:34:52;;;;;;;;;25.00;21.33;;;;;4.74;68.53;98036.09;5012284;28;8858;-59
2021/01/25 10:37:19;;;;;;;;;20.00;15.00;;;;;4.62;67.13;98024.47;5013404;28;8861;-60
2021/01/25 10:39:47;;;;;;;;;19.33;15.33;;;;;4.67;67.93;98029.50;5012884;28;8865;-59
2021/01/25 10:42:14;;;;;;;;;21.00;15.67;;;;;4.68;67.00;98039.16;5012870;28;8989;-59
2021/01/25 10:44:41;;;;;;;;;19.67;17.67;;;;;4.87;67.15;98038.81;5013144;28;8866;-58
2021/01/25 10:47:08;;;;;;;;;28.00;21.00;;;;;4.96;67.70;98038.25;5012747;28;8835;-59
2021/01/25 10:49:36;;;;;;;;;19.33;14.00;;;;;4.90;63.29;98028.88;5012862;28;8843;-59
2021/01/25 10:52:03;;;;;;;;;14.00;11.00;;;;;4.80;62.69;98038.38;5013053;28;8847;-59
2021/01/25 10:54:30;;;;;;;;;35.33;25.67;;;;;4.90;64.45;98043.94;5012764;28;8962;-59
2021/01/25 10:56:57;;;;;;;;;41.67;27.00;;;;;5.13;63.48;98039.78;5012895;28;8889;-59
2021/01/25 10:59:23;;;;;;;;;25.33;17.33;;;;;5.01;63.60;98036.97;5012829;28;9608;-59
2021/01/25 11:01:50;;;;;;;;;20.33;18.33;;;;;5.03;61.32;98043.06;5012448;28;8847;-59
2021/01/25 11:04:18;;;;;;;;;11.67;11.67;;;;;5.03;60.56;98034.25;5012123;28;8859;-59
2021/01/25 11:06:48;;;;;;;;;17.67;11.00;;;;;5.15;61.39;98035.22;5012748;28;8954;-59
2021/01/25 11:09:19;;;;;;;;;10.33;8.00;;;;;5.00;59.76;98043.28;5012409;28;8859;-59
2021/01/25 11:11:46;;;;;;;;;12.00;11.00;;;;;5.03;61.15;98035.09;5012399;28;8839;-59
2021/01/25 11:14:13;;;;;;;;;12.33;11.00;;;;;5.22;62.86;98033.88;5011909;28;8863;-59
2021/01/25 11:16:42;;;;;;;;;14.67;7.67;;;;;4.86;61.25;98037.13;5012521;28;8898;-59
2021/01/25 11:19:11;;;;;;;;;14.00;11.00;;;;;5.09;61.37;98027.66;5027728;28;8925;-59
2021/01/25 11:21:38;;;;;;;;;16.00;14.00;;;;;5.16;62.95;98035.13;5012383;28;8862;-59
2021/01/25 11:24:07;;;;;;;;;13.00;9.00;;;;;4.97;61.04;98040.78;5012280;28;9595;-59
2021/01/25 11:26:38;;;;;;;;;14.00;10.33;;;;;4.91;61.47;98033.22;5011727;28;8879;-59
2021/01/25 11:29:10;;;;;;;;;11.00;7.67;;;;;5.04;60.92;98035.94;5012090;28;8859;-59
2021/01/25 11:31:37;;;;;;;;;14.00;11.33;;;;;5.23;61.00;98051.53;5027783;28;8869;-59
2021/01/25 11:34:04;;;;;;;;;13.33;9.00;;;;;4.96;61.19;98041.75;5027557;28;8843;-59
2021/01/25 11:36:31;;;;;;;;;14.33;11.67;;;;;5.11;64.27;98052.31;5012259;28;8831;-59
2021/01/25 11:38:58;;;;;;;;;9.33;9.33;;;;;4.86;60.99;98056.59;5011757;28;8851;-59
2021/01/25 11:41:25;;;;;;;;;13.33;10.33;;;;;5.05;60.68;98064.22;5011887;28;8835;-61
2021/01/25 11:43:52;;;;;;;;;8.33;8.00;;;;;5.19;61.03;98061.53;5011933;28;8897;-60
2021/01/25 11:46:19;;;;;;;;;11.00;10.33;;;;;4.99;60.54;98072.63;5012060;28;8858;-60
2021/01/25 11:48:46;;;;;;;;;11.67;9.33;;;;;4.99;60.86;98081.44;5027507;28;8859;-60
2021/01/25 11:51:13;;;;;;;;;11.00;11.00;;;;;4.83;62.24;98080.72;5011586;28;8874;-60